createdAt,value
2023-05-13T07:02:51.331Z,19.21
2023-05-13T07:04:42.845Z,19.22
2023-05-13T07:06:35.395Z,19.29
2023-05-13T07:08:26.906Z,19.46
2023-05-13T07:10:18.331Z,19.58
2023-05-13T07:12:11.197Z,19.72
2023-05-13T07:14:03.043Z,19.87
2023-05-13T07:15:54.598Z,20.04
2023-05-13T07:17:46.092Z,20.20
2023-05-13T07:19:37.634Z,20.28
2023-05-13T07:21:29.955Z,20.26
2023-05-13T07:23:21.119Z,20.39
2023-05-13T07:25:12.597Z,20.49
2023-05-13T07:27:04.693Z,20.53
2023-05-13T07:28:57.037Z,20.68
2023-05-13T07:30:48.926Z,20.73
2023-05-13T07:32:40.856Z,20.86
2023-05-13T07:34:32.674Z,20.89
2023-05-13T07:36:24.107Z,21.02
2023-05-13T07:38:15.304Z,21.19
2023-05-13T07:40:07.923Z,21.39
2023-05-13T07:41:59.401Z,21.48
2023-05-13T07:43:51.016Z,21.49
2023-05-13T07:45:48.000Z,21.58
2023-05-13T07:47:40.669Z,21.67
2023-05-13T07:49:32.607Z,21.80
2023-05-13T07:51:23.670Z,21.91
2023-05-13T07:53:15.257Z,21.87
2023-05-13T07:55:07.392Z,22.04
2023-05-13T07:56:58.766Z,22.36
2023-05-13T07:58:50.659Z,22.56
2023-05-13T08:00:42.377Z,22.77
2023-05-13T08:02:35.192Z,22.87
2023-05-13T08:04:26.959Z,22.84
2023-05-13T08:06:18.370Z,23.03
2023-05-13T08:08:09.985Z,23.27
2023-05-13T08:10:01.218Z,23.37
2023-05-13T08:11:52.391Z,23.43
2023-05-13T08:13:43.721Z,23.35
2023-05-13T08:15:35.408Z,23.27
2023-05-13T08:17:26.734Z,23.36
2023-05-13T08:19:18.344Z,23.41
2023-05-13T08:21:09.632Z,23.65
2023-05-13T08:23:02.061Z,23.85
2023-05-13T08:24:54.203Z,24.03
2023-05-13T08:26:45.760Z,24.26
2023-05-13T08:28:38.047Z,24.38
2023-05-13T08:30:29.175Z,24.42
2023-05-13T08:32:20.393Z,24.38
2023-05-13T08:34:11.945Z,24.30
2023-05-13T08:36:03.346Z,24.47
2023-05-13T08:37:54.686Z,24.72
2023-05-13T08:39:45.967Z,24.66
2023-05-13T08:41:37.807Z,24.73
2023-05-13T08:43:31.209Z,24.85
2023-05-13T08:45:22.995Z,25.08
2023-05-13T08:47:40.807Z,25.10
2023-05-13T08:49:32.364Z,25.25
2023-05-13T08:51:24.037Z,25.31
2023-05-13T08:53:18.718Z,25.44
2023-05-13T08:55:09.986Z,25.42
2023-05-13T08:57:01.672Z,25.50
2023-05-13T08:58:53.441Z,25.43
2023-05-13T09:00:45.769Z,25.50
2023-05-13T09:02:37.612Z,25.71
2023-05-13T09:04:29.624Z,25.77
2023-05-13T09:06:21.221Z,25.80
2023-05-13T09:08:12.697Z,25.76
2023-05-13T09:10:06.055Z,25.73
2023-05-13T09:11:57.842Z,25.89
2023-05-13T09:14:07.239Z,25.92
2023-05-13T09:15:58.737Z,25.68
2023-05-13T09:17:54.539Z,25.70
2023-05-13T09:19:46.022Z,25.82
2023-05-13T09:21:37.443Z,26.15
2023-05-13T09:27:14.263Z,26.29
2023-05-13T09:29:30.928Z,26.16
2023-05-13T09:31:40.384Z,25.99
2023-05-13T09:33:33.130Z,25.41
2023-05-13T09:35:25.033Z,24.76
2023-05-13T09:37:19.077Z,24.26
2023-05-13T09:39:11.648Z,23.95
2023-05-13T09:41:03.571Z,24.12
2023-05-13T09:42:58.987Z,24.55
2023-05-13T09:44:50.532Z,24.95
2023-05-13T09:46:43.556Z,24.97
2023-05-13T09:48:34.989Z,24.57
2023-05-13T09:50:27.162Z,24.06
2023-05-13T09:52:18.765Z,23.69
2023-05-13T09:54:11.121Z,23.44
2023-05-13T09:56:04.295Z,23.20
2023-05-13T09:57:55.564Z,23.04
2023-05-13T09:59:46.741Z,23.06
2023-05-13T10:01:39.416Z,23.05
2023-05-13T10:03:31.836Z,23.14
2023-05-13T10:05:23.958Z,23.18
2023-05-13T10:07:15.506Z,23.25
2023-05-13T10:09:08.330Z,23.57
2023-05-13T10:10:59.902Z,23.74
2023-05-13T10:12:51.759Z,24.12
2023-05-13T10:14:43.514Z,24.21
2023-05-13T10:16:35.265Z,23.92
2023-05-13T10:18:29.035Z,23.63
2023-05-13T10:22:41.977Z,23.45
2023-05-13T10:24:33.627Z,23.16
2023-05-13T10:26:25.446Z,23.02
2023-05-13T10:28:17.713Z,23.43
2023-05-13T10:30:10.234Z,23.89
2023-05-13T10:32:02.454Z,24.13
2023-05-13T10:33:57.042Z,24.26
2023-05-13T10:36:19.886Z,24.28
2023-05-13T10:38:22.589Z,24.07
2023-05-13T10:40:30.070Z,24.30
2023-05-13T10:42:36.519Z,24.81
2023-05-13T10:44:28.048Z,25.14
2023-05-13T10:46:19.773Z,25.34
2023-05-13T10:48:13.593Z,25.73
2023-05-13T10:50:23.482Z,25.76
2023-05-13T10:52:15.314Z,25.65
2023-05-13T10:54:21.394Z,25.23
2023-05-13T10:56:13.732Z,24.73
2023-05-13T10:58:16.281Z,24.27
2023-05-13T11:00:15.947Z,23.84
2023-05-13T11:02:34.392Z,23.54
2023-05-13T11:04:25.922Z,23.55
2023-05-13T11:06:19.688Z,23.92
2023-05-13T11:08:11.992Z,24.24
2023-05-13T11:10:03.663Z,24.48
2023-05-13T11:11:56.928Z,24.39
2023-05-13T11:14:10.594Z,24.55
2023-05-13T11:16:06.251Z,24.49
2023-05-13T11:17:57.579Z,24.26
2023-05-13T11:19:51.492Z,24.08
2023-05-13T11:21:48.606Z,24.00
2023-05-13T11:23:59.621Z,23.94
2023-05-13T11:26:16.918Z,23.80
2023-05-13T11:28:09.278Z,23.76
2023-05-13T11:30:00.771Z,23.60
2023-05-13T11:31:53.178Z,23.48
2023-05-13T11:34:09.809Z,23.32
2023-05-13T11:36:01.292Z,23.15
2023-05-13T11:37:53.065Z,23.00
2023-05-13T11:39:44.332Z,22.92
2023-05-13T11:41:36.530Z,22.83
2023-05-13T11:43:27.876Z,22.76
2023-05-13T11:45:20.757Z,22.70
2023-05-13T11:47:12.628Z,22.68
2023-05-13T11:49:07.078Z,22.57
2023-05-13T11:50:58.551Z,22.48
2023-05-13T11:52:57.963Z,22.40
2023-05-13T11:54:49.372Z,22.30
2023-05-13T11:56:42.943Z,22.34
2023-05-13T11:58:34.392Z,22.36
2023-05-13T12:00:33.571Z,22.36
2023-05-13T12:02:31.410Z,22.44
2023-05-13T12:04:28.356Z,22.53
2023-05-13T12:06:19.452Z,22.85
2023-05-13T12:08:11.209Z,23.09
2023-05-13T12:10:03.769Z,23.19
2023-05-13T12:11:54.861Z,23.31
2023-05-13T12:13:46.597Z,23.57
2023-05-13T12:15:38.315Z,23.65
2023-05-13T12:17:30.914Z,23.54
2023-05-13T12:19:22.419Z,23.40
2023-05-13T12:21:15.883Z,23.30
2023-05-13T12:23:07.423Z,23.11
2023-05-13T12:25:01.871Z,22.96
2023-05-13T12:26:54.557Z,22.79
2023-05-13T12:28:46.060Z,22.69
2023-05-13T12:30:42.566Z,22.71
2023-05-13T12:32:34.159Z,22.62
2023-05-13T12:34:35.014Z,22.56
2023-05-13T12:36:36.019Z,22.60
2023-05-13T12:38:27.866Z,22.61
2023-05-13T12:40:19.313Z,22.46
2023-05-13T12:42:17.729Z,22.21
2023-05-13T12:44:15.648Z,22.05
2023-05-13T12:46:07.237Z,21.89
2023-05-13T12:48:00.640Z,21.71
2023-05-13T12:49:53.396Z,21.53
2023-05-13T12:51:44.569Z,21.35
2023-05-13T12:53:35.952Z,21.18
2023-05-13T12:55:27.402Z,21.08
2023-05-13T12:57:20.608Z,21.01
2023-05-13T12:59:13.449Z,20.98
2023-05-13T13:01:05.061Z,20.98
2023-05-13T13:02:56.876Z,20.96
2023-05-13T13:04:48.105Z,20.91
2023-05-13T13:06:39.836Z,20.92
2023-05-13T13:08:31.489Z,20.96
2023-05-13T13:10:22.881Z,20.94
2023-05-13T13:12:14.202Z,20.99
2023-05-13T13:14:05.310Z,21.05
2023-05-13T13:15:56.695Z,21.09
2023-05-13T13:17:47.835Z,21.17
2023-05-13T13:19:39.021Z,21.40
2023-05-13T13:21:30.758Z,21.48
2023-05-13T13:23:22.234Z,21.45
2023-05-13T13:25:13.614Z,21.44
2023-05-13T13:27:05.260Z,21.48
2023-05-13T13:28:56.737Z,21.44
2023-05-13T13:30:48.330Z,21.42
2023-05-13T13:32:40.284Z,21.43
2023-05-13T13:34:31.748Z,21.47
2023-05-13T13:36:23.403Z,21.52
2023-05-13T13:38:15.148Z,21.63
2023-05-13T13:40:07.126Z,21.49
2023-05-13T13:41:58.241Z,21.40
2023-05-13T13:43:49.881Z,21.32
2023-05-13T13:45:41.519Z,21.23
2023-05-13T13:47:33.400Z,21.17
2023-05-13T13:49:25.177Z,20.98
2023-05-13T13:51:16.372Z,20.84
2023-05-13T13:53:07.934Z,20.68
2023-05-13T13:54:59.287Z,20.56
2023-05-13T13:56:51.080Z,20.49
2023-05-13T13:58:42.526Z,20.51
2023-05-13T14:00:33.986Z,20.49
2023-05-13T14:02:25.771Z,20.50
2023-05-13T14:04:23.512Z,20.46
2023-05-13T14:06:15.273Z,20.42
2023-05-13T14:08:06.454Z,20.37
2023-05-13T14:10:00.304Z,20.36
2023-05-13T14:11:52.591Z,20.35
2023-05-13T14:13:43.515Z,20.21
2023-05-13T14:15:39.036Z,20.16
2023-05-13T14:17:30.620Z,20.16
2023-05-13T14:19:21.579Z,20.22
2023-05-13T14:21:12.983Z,20.24
2023-05-13T14:23:05.550Z,20.25
2023-05-13T14:24:57.089Z,20.21
2023-05-13T14:26:48.169Z,20.19
2023-05-13T14:28:39.909Z,20.22
2023-05-13T14:30:31.563Z,20.36
2023-05-13T14:32:22.907Z,20.56
2023-05-13T14:34:14.238Z,20.86
2023-05-13T14:36:06.422Z,21.16
2023-05-13T14:37:57.954Z,21.38
2023-05-13T14:39:50.281Z,21.38
2023-05-13T14:41:46.011Z,21.46
2023-05-13T14:43:38.170Z,21.60
2023-05-13T14:45:29.698Z,21.62
2023-05-13T14:47:21.149Z,21.53
2023-05-13T14:49:12.823Z,21.39
2023-05-13T14:51:04.586Z,21.29
2023-05-13T14:52:55.893Z,21.24
2023-05-13T14:54:47.245Z,21.25
2023-05-13T14:56:38.856Z,21.30
2023-05-13T14:58:30.337Z,21.37
2023-05-13T15:00:21.824Z,21.53
2023-05-13T15:02:14.643Z,21.68
2023-05-13T15:04:06.319Z,21.88
2023-05-13T15:06:00.200Z,22.09
2023-05-13T15:07:51.548Z,22.26
2023-05-13T15:09:43.111Z,22.46
2023-05-13T15:11:34.572Z,22.50
2023-05-13T15:13:27.274Z,22.47
2023-05-13T15:15:18.531Z,22.42
2023-05-13T15:17:12.013Z,22.29
2023-05-13T15:19:03.934Z,22.19
2023-05-13T15:20:55.331Z,21.95
2023-05-13T15:22:46.750Z,21.84
2023-05-13T15:24:38.967Z,21.73
2023-05-13T15:26:31.218Z,21.58
2023-05-13T15:28:34.147Z,21.48
2023-05-13T15:30:25.656Z,21.28
2023-05-13T15:32:16.748Z,21.19
2023-05-13T15:34:08.150Z,21.22
2023-05-13T15:35:59.720Z,21.27
2023-05-13T15:37:50.996Z,21.38
2023-05-13T15:39:42.164Z,21.34
2023-05-13T15:41:33.845Z,21.30
2023-05-13T15:43:24.961Z,21.24
2023-05-13T15:45:16.609Z,21.22
2023-05-13T15:47:08.332Z,21.22
2023-05-13T15:49:00.447Z,21.14
2023-05-13T15:50:52.041Z,20.99
2023-05-13T15:52:43.268Z,20.86
2023-05-13T15:54:34.921Z,20.78
2023-05-13T15:56:26.747Z,20.71
2023-05-13T15:58:18.424Z,20.64
2023-05-13T16:00:10.131Z,20.57
2023-05-13T16:02:01.670Z,20.46
2023-05-13T16:03:53.314Z,20.31
2023-05-13T16:05:44.688Z,20.19
2023-05-13T16:07:36.215Z,20.08
2023-05-13T16:09:27.391Z,20.01
2023-05-13T16:11:18.899Z,19.92
2023-05-13T16:13:10.371Z,19.81
2023-05-13T16:15:01.850Z,19.71
2023-05-13T16:16:53.082Z,19.62
2023-05-13T16:18:44.451Z,19.60
2023-05-13T16:20:36.136Z,19.53
2023-05-13T16:22:33.580Z,19.44
2023-05-13T16:24:25.031Z,19.37
2023-05-13T16:26:16.976Z,19.34
2023-05-13T16:28:08.492Z,19.31
2023-05-13T16:30:01.207Z,19.26
2023-05-13T16:34:06.573Z,19.21
2023-05-13T16:35:57.989Z,19.18
2023-05-13T16:37:50.190Z,19.15
2023-05-13T16:39:41.810Z,19.13
2023-05-13T16:41:36.071Z,19.08
2023-05-13T16:43:27.494Z,19.06
2023-05-13T16:45:19.084Z,19.06
2023-05-13T16:47:10.560Z,19.01
2023-05-13T16:49:02.412Z,18.97
2023-05-13T16:50:53.935Z,18.95
2023-05-13T16:52:45.574Z,18.91
2023-05-13T16:54:36.988Z,18.88
2023-05-13T16:56:28.974Z,18.83
2023-05-13T16:58:21.285Z,18.79
2023-05-13T17:00:14.589Z,18.78
2023-05-13T17:02:07.633Z,18.78
2023-05-13T17:03:59.092Z,18.74
2023-05-13T17:05:50.942Z,18.72
2023-05-13T17:07:42.587Z,18.66
2023-05-13T17:09:34.233Z,18.63
2023-05-13T17:11:26.605Z,18.59
2023-05-13T17:13:19.822Z,18.53
2023-05-13T17:15:11.500Z,18.50
2023-05-13T17:17:03.372Z,18.50
2023-05-13T17:18:58.333Z,18.50
2023-05-13T17:20:51.488Z,18.49
2023-05-13T17:22:47.274Z,18.49
2023-05-13T17:24:40.033Z,18.46
2023-05-13T17:26:32.165Z,18.44
2023-05-13T17:28:23.608Z,18.43
2023-05-13T17:30:16.175Z,18.42
2023-05-13T17:32:07.430Z,18.39
2023-05-13T17:33:59.164Z,18.36
2023-05-13T17:35:50.973Z,18.32
2023-05-13T17:37:42.219Z,18.28
2023-05-13T17:39:33.632Z,18.23
2023-05-13T17:41:25.608Z,18.19
2023-05-13T17:43:17.850Z,18.15
2023-05-13T17:45:09.913Z,18.13
2023-05-13T17:47:01.891Z,18.10
2023-05-13T17:48:53.789Z,18.03
2023-05-13T17:50:45.757Z,17.99
2023-05-13T17:52:37.485Z,17.93
2023-05-13T17:54:29.142Z,17.89
2023-05-13T17:56:21.606Z,17.83
2023-05-13T17:58:13.345Z,17.77
2023-05-13T18:00:07.056Z,17.70
2023-05-13T18:01:58.757Z,17.63
2023-05-13T18:03:50.632Z,17.57
2023-05-13T18:05:42.350Z,17.51
2023-05-13T18:07:33.977Z,17.43
2023-05-13T18:09:25.471Z,17.34
2023-05-13T18:11:17.205Z,17.27
2023-05-13T18:13:08.796Z,17.19
2023-05-13T18:15:00.406Z,17.11
2023-05-13T18:16:51.774Z,17.01
2023-05-13T18:18:43.221Z,16.93
2023-05-13T18:20:34.979Z,16.85
2023-05-13T18:22:26.770Z,16.78
2023-05-13T18:24:18.284Z,16.70
2023-05-13T18:26:10.553Z,16.62
2023-05-13T18:28:02.402Z,16.54
2023-05-13T18:29:53.928Z,16.46
2023-05-13T18:31:45.948Z,16.37
2023-05-13T18:33:37.266Z,16.29
2023-05-13T18:35:28.676Z,16.21
2023-05-13T18:37:20.334Z,16.13
2023-05-13T18:39:11.885Z,16.04
2023-05-13T18:41:03.695Z,15.97
2023-05-13T18:42:55.060Z,15.90
2023-05-13T18:45:11.042Z,15.79
2023-05-13T18:47:03.908Z,15.72
2023-05-13T18:48:55.352Z,15.65
2023-05-13T18:50:47.077Z,15.59
2023-05-13T18:52:40.145Z,15.52
2023-05-13T18:54:51.857Z,15.45
2023-05-13T18:56:44.207Z,15.37
2023-05-13T18:58:35.651Z,15.30
2023-05-13T19:00:27.400Z,15.23
2023-05-13T19:02:19.653Z,15.18
2023-05-13T19:04:12.778Z,15.13
2023-05-13T19:06:04.624Z,15.05
2023-05-13T19:07:57.983Z,14.97
2023-05-13T19:09:50.142Z,14.91
2023-05-13T19:11:42.273Z,14.85
2023-05-13T19:13:46.036Z,14.79
2023-05-13T19:15:39.276Z,14.71
2023-05-13T19:17:31.331Z,14.64
2023-05-13T19:19:24.304Z,14.57
2023-05-13T19:21:15.825Z,14.49
2023-05-13T19:23:07.564Z,14.41
2023-05-13T19:24:59.124Z,14.33
2023-05-13T19:26:51.041Z,14.27
2023-05-13T19:28:44.164Z,14.20
2023-05-13T19:30:36.621Z,14.14
2023-05-13T19:32:28.124Z,14.08
2023-05-13T19:34:19.982Z,13.99
2023-05-13T19:36:11.751Z,13.93
2023-05-13T19:38:03.776Z,13.88
2023-05-13T19:39:56.473Z,13.82
2023-05-13T19:41:48.363Z,13.75
2023-05-13T19:43:39.940Z,13.66
2023-05-13T19:45:31.346Z,13.61
2023-05-13T19:47:23.233Z,13.55
2023-05-13T19:49:14.667Z,13.49
2023-05-13T19:51:06.339Z,13.43
2023-05-13T19:52:57.585Z,13.37
2023-05-13T19:54:49.900Z,13.30
2023-05-13T19:56:41.627Z,13.21
2023-05-13T19:58:33.474Z,13.18
2023-05-13T20:00:25.168Z,13.11
2023-05-13T20:02:17.173Z,13.06
2023-05-13T20:04:09.521Z,13.01
2023-05-13T20:06:01.689Z,12.94
2023-05-13T20:07:53.264Z,12.88
2023-05-13T20:09:45.376Z,12.81
2023-05-13T20:11:36.961Z,12.75
2023-05-13T20:13:28.762Z,12.72
2023-05-13T20:15:20.712Z,12.67
2023-05-13T20:17:21.163Z,12.63
2023-05-13T20:19:13.317Z,12.55
2023-05-13T20:21:05.038Z,12.50
2023-05-13T20:22:56.623Z,12.44
2023-05-13T20:24:50.900Z,12.41
2023-05-13T20:26:42.471Z,12.36
2023-05-13T20:28:36.088Z,12.32
2023-05-13T20:30:29.051Z,12.28
2023-05-13T20:32:25.059Z,12.25
2023-05-13T20:34:17.211Z,12.23
2023-05-13T20:36:08.680Z,12.20
2023-05-13T20:38:01.112Z,12.17
2023-05-13T20:39:52.876Z,12.13
2023-05-13T20:41:44.682Z,12.10
2023-05-13T20:43:36.709Z,12.07
2023-05-13T20:45:28.634Z,12.01
2023-05-13T20:47:20.696Z,11.98
2023-05-13T20:49:12.812Z,11.95
2023-05-13T20:51:05.779Z,11.92
2023-05-13T20:52:57.348Z,11.90
2023-05-13T20:54:49.470Z,11.86
2023-05-13T20:56:41.311Z,11.81
2023-05-13T20:58:32.968Z,11.78
2023-05-13T21:00:24.545Z,11.74
2023-05-13T21:02:17.592Z,11.71
2023-05-13T21:04:10.074Z,11.69
2023-05-13T21:06:02.157Z,11.65
2023-05-13T21:07:54.091Z,11.62
2023-05-13T21:09:45.920Z,11.59
2023-05-13T21:11:37.132Z,11.56
2023-05-13T21:23:12.830Z,11.40
2023-05-13T21:25:02.967Z,11.34
2023-05-13T21:26:53.317Z,11.32
2023-05-13T21:28:43.911Z,11.28
2023-05-13T21:30:34.531Z,11.23
2023-05-13T21:32:24.672Z,11.19
2023-05-13T21:34:15.199Z,11.16
2023-05-13T21:36:06.357Z,11.12
2023-05-13T21:38:08.246Z,11.07
2023-05-13T21:40:02.569Z,11.05
2023-05-13T21:41:53.269Z,11.01
2023-05-13T21:43:43.439Z,10.99
2023-05-13T21:45:33.572Z,10.96
2023-05-13T21:47:23.877Z,10.93
2023-05-13T21:49:14.016Z,10.90
2023-05-13T21:51:04.392Z,10.87
2023-05-13T21:52:55.039Z,10.85
2023-05-13T21:54:45.229Z,10.82
2023-05-13T21:56:36.171Z,10.80
2023-05-13T21:58:26.772Z,10.77
2023-05-13T22:00:18.787Z,10.75
2023-05-13T22:02:09.518Z,10.71
2023-05-13T22:03:59.843Z,10.68
2023-05-13T22:05:50.074Z,10.66
2023-05-13T22:07:40.741Z,10.64
2023-05-13T22:09:31.308Z,10.61
2023-05-13T22:11:22.732Z,10.59
2023-05-13T22:13:13.417Z,10.55
2023-05-13T22:15:04.048Z,10.51
2023-05-13T22:17:07.519Z,10.47
2023-05-13T22:18:59.414Z,10.43
2023-05-13T22:20:50.510Z,10.40
2023-05-13T22:22:41.628Z,10.37
2023-05-13T22:24:32.427Z,10.34
2023-05-13T22:26:23.063Z,10.32
2023-05-13T22:28:13.431Z,10.30
2023-05-13T22:30:04.477Z,10.26
2023-05-13T22:31:57.053Z,10.24
2023-05-13T22:33:47.699Z,10.22
2023-05-13T22:35:38.910Z,10.20
2023-05-13T22:37:29.360Z,10.18
2023-05-13T22:39:20.004Z,10.16
2023-05-13T22:41:11.022Z,10.10
2023-05-13T22:43:02.569Z,10.05
2023-05-13T22:44:52.778Z,10.01
2023-05-13T22:46:43.503Z,9.98
2023-05-13T22:48:34.172Z,9.95
2023-05-13T22:50:25.144Z,9.91
2023-05-13T22:52:15.782Z,9.88
2023-05-13T22:54:06.975Z,9.84
2023-05-13T22:55:57.554Z,9.80
2023-05-13T22:57:48.347Z,9.76
2023-05-13T22:59:39.048Z,9.73
2023-05-13T23:01:30.045Z,9.68
2023-05-13T23:03:20.989Z,9.63
2023-05-13T23:05:11.331Z,9.58
2023-05-13T23:07:02.098Z,9.55
2023-05-13T23:08:52.326Z,9.53
2023-05-13T23:10:43.109Z,9.50
2023-05-13T23:12:33.766Z,9.48
2023-05-13T23:14:27.209Z,9.46
2023-05-13T23:16:18.328Z,9.42
2023-05-13T23:18:08.998Z,9.37
2023-05-13T23:19:59.870Z,9.30
2023-05-13T23:21:50.319Z,9.23
2023-05-13T23:23:40.538Z,9.18
2023-05-13T23:25:30.921Z,9.15
2023-05-13T23:27:21.572Z,9.13
2023-05-13T23:29:12.103Z,9.11
2023-05-13T23:31:02.319Z,9.07
2023-05-13T23:32:52.288Z,9.03
2023-05-13T23:34:42.674Z,8.99
2023-05-13T23:36:33.157Z,8.92
2023-05-13T23:38:23.480Z,8.89
2023-05-13T23:40:13.883Z,8.84
2023-05-13T23:42:04.090Z,8.85
2023-05-13T23:43:54.472Z,8.86
2023-05-13T23:45:45.681Z,8.88
2023-05-13T23:47:36.022Z,8.89
2023-05-13T23:49:25.900Z,8.90
2023-05-13T23:51:15.881Z,8.90
2023-05-13T23:53:06.120Z,8.88
2023-05-13T23:54:56.281Z,8.88
2023-05-13T23:56:46.516Z,8.88
2023-05-13T23:58:36.731Z,8.88
